Mijn Webcam Meer informatie Mijn Webcam


webcam facing north-east Meer informatie webcam facing north-east


Regen radar Meer informatie rain snow radar


Bezoek onze andere website:

Template documentation
and downloads

And another site


CBI



Mist van: 19-10-2017 00:00 tot: 08:59 waarschuwing voor: Mist niveau: Geel info button
Lokaal dichte mist of mistbanken met zicht minder dan 200 m.Gevaarlijke rijomstandigheden door slecht zicht. Pas snelheid aan en houd voldoende afstand. Mist kan verraderlijk zijn door plotseling optreden. Volg weerberichten en waarschuwingen.

METAR rapporten vliegvelden

   
EHGG - Groningen/Eelde
Gewijzigd: 19-10-2017 05:25
Nevel, Grotendeels bewolkt  
Nevel, Grotendeels bewolkt  
   Wind: OZO 1,5 m/s
Wind: OZO 1,5 m/s
Temperatuur: 13°C
Dauwpunt: 13°C
Vochtigheid: 100%
Barometer: 1011 hPa
Bewolking: Grotendeels bewolkt
Zicht: 1 km
Bewolking: Grotendeels bewolkt,
Grotendeels bewolkt 61 m,
Licht bewolkt 457,2 m
EHGG 190325Z AUTO 12003KT 090V160 1100 R05/P2000U BR BKN000 BKN002 FEW015CB 13/13 Q1011
EHMA - Schiermonnikoog
Gewijzigd: 19-10-2017 05:25
Nevel, Gedeeltelijk bewolkt  
Nevel, Gedeeltelijk bewolkt  
   Wind: ZO 5,7 m/s
Wind: ZO 5,7 m/s
Temperatuur: 12°C
Dauwpunt: 12°C
Vochtigheid: 100%
Barometer: 1011 hPa
Bewolking: Gedeeltelijk bewolkt
Zicht: 2 km
Bewolking: Licht bewolkt 243,8 m,
Gedeeltelijk bewolkt 1463 m
EHMA 190325Z AUTO 13011KT 1800 BR FEW008 SCT048 12/12 Q1011
EHMG - Terschelling
Gewijzigd: 19-10-2017 05:25
Gedeeltelijk bewolkt  
Gedeeltelijk bewolkt  
   Wind: Zuiden 6,2 m/s
Wind: Zuiden 6,2 m/s
Temperatuur: 14°C
Dauwpunt: 13°C
Vochtigheid: 94%
Barometer: 1010 hPa
Bewolking: Gedeeltelijk bewolkt
Bewolking: Gedeeltelijk bewolkt
EHMG 190325Z AUTO 17012KT //// // NSC 14/13 Q1010 RE//
EHVL - Vlieland
Gewijzigd: 19-10-2017 05:25
Nevel, Grotendeels bewolkt  
Nevel, Grotendeels bewolkt  
   Wind: Zuiden 3,6 m/s
Wind: Zuiden 3,6 m/s
Temperatuur: 13°C
Dauwpunt: 13°C
Vochtigheid: 100%
Barometer: 1011 hPa
Bewolking: Grotendeels bewolkt
Zicht: 2 km
Bewolking: Grotendeels bewolkt 8839,2 m
EHVL 190325Z AUTO 17007KT 2100 BR BKN290 13/13 Q1011 YLO
ETWM - Meppen, Germany
Gewijzigd: 19-10-2017 05:20
  
  
   Wind: Oosten 0,5 m/s
Wind: Oosten 0,5 m/s
Temperatuur: 11°C
Dauwpunt: 10°C
Vochtigheid: 94%
Barometer: 1012 hPa
Zicht: 3 km
ETWM 190320Z AUTO 09001KT 3100 // ////// 11/10 Q1012 ///
 

Script ontwikkeld door  Saratoga-weather.org Aangepast voor de template door  Weerstation Leuven

U vindt ons ook hier:

Het Weer Aktueel

UK Metoffice

European Weather Network

WeatherCloud

Weather Underground

Benelux Weer Netwerk

AWEKAS

WeatherlinkIP

HAMweather, WeatherForYou, PWS Weather

Apparatuur in gebruik:

Weerstation
Davis VP2 Plus

Weerprogramma
Cumulus

Weercomputer
ASUS Eee Box B202

Webleverancier
Antagonist

Davis VP2 Plus

Cumulus

ASUS Eee Box B202

Antagonist